Time;durP1;ratioP1;P1;durP2;ratioP2;P2;SDS_P1;SDS_P2;PMS_P1;PMS_P2;Temp;Humidity;BMP_temperature;BMP_pressure;BME280_temperature;BME280_humidity;BME280_pressure;Samples;Min_cycle;Max_cycle;Signal;HPM_P1;HPM_P2
2023/06/02 00:00:42;;;;;;;1999.90;999.90;;;19.00;99.90;;;;;;5017441;28;20065;-83
2023/06/02 00:03:08;;;;;;;1999.90;999.90;;;19.00;99.90;;;;;;5034463;28;20029;-83
2023/06/02 00:05:34;;;;;;;1999.90;999.90;;;19.10;99.90;;;;;;5035389;28;20370;-83
2023/06/02 00:08:02;;;;;;;1999.90;999.90;;;19.10;99.90;;;;;;5017061;28;20108;-83
2023/06/02 00:10:28;;;;;;;1999.90;999.90;;;19.00;99.90;;;;;;5016294;28;20026;-83
2023/06/02 00:12:53;;;;;;;1999.90;999.90;;;19.00;99.90;;;;;;5017995;28;20165;-83
2023/06/02 00:15:19;;;;;;;1999.90;999.90;;;19.00;99.90;;;;;;5017078;28;20041;-83
2023/06/02 00:17:45;;;;;;;1999.90;999.90;;;19.00;99.90;;;;;;5031296;28;20025;-83
2023/06/02 00:20:10;;;;;;;1999.90;999.90;;;19.00;99.90;;;;;;5034648;28;20029;-83
2023/06/02 00:22:38;;;;;;;1999.90;999.90;;;18.90;99.90;;;;;;5034835;28;20021;-83
2023/06/02 00:25:04;;;;;;;1999.90;999.90;;;18.90;99.90;;;;;;5034228;28;20500;-83
2023/06/02 00:27:30;;;;;;;1999.90;999.90;;;18.90;99.90;;;;;;5034933;28;20025;-83
2023/06/02 00:29:56;;;;;;;1999.90;999.90;;;18.90;99.90;;;;;;5034524;28;20096;-83
2023/06/02 00:32:21;;;;;;;1999.90;999.90;;;19.00;99.90;;;;;;5034922;28;20022;-83
2023/06/02 00:34:47;;;;;;;1999.90;999.90;;;19.10;99.90;;;;;;5033917;28;20109;-83
2023/06/02 00:37:12;;;;;;;1999.90;999.90;;;19.10;99.90;;;;;;5034549;28;20056;-83
2023/06/02 00:39:38;;;;;;;1999.90;999.90;;;19.10;99.90;;;;;;5034451;28;20077;-83
2023/06/02 00:42:05;;;;;;;1999.90;999.90;;;19.10;99.90;;;;;;5034534;28;20030;-83
2023/06/02 00:44:30;;;;;;;1999.90;999.90;;;19.10;99.90;;;;;;5034123;28;20492;-83
2023/06/02 00:46:56;;;;;;;1999.90;999.90;;;19.10;99.90;;;;;;5034218;28;20028;-83
2023/06/02 00:49:22;;;;;;;1999.90;999.90;;;19.10;99.90;;;;;;5016550;28;20026;-83
2023/06/02 00:51:49;;;;;;;1999.90;999.90;;;19.10;99.90;;;;;;5034251;28;20029;-83
2023/06/02 00:54:16;;;;;;;1999.90;999.90;;;19.00;99.90;;;;;;5033740;28;20088;-83
2023/06/02 00:56:42;;;;;;;1999.90;999.90;;;19.00;99.90;;;;;;5033923;28;20384;-83
2023/06/02 00:59:10;;;;;;;1999.90;999.90;;;19.00;99.90;;;;;;5034145;28;20503;-83
2023/06/02 01:01:35;;;;;;;1999.90;999.90;;;19.00;99.90;;;;;;5034043;28;20021;-83
2023/06/02 01:04:01;;;;;;;1999.90;999.90;;;19.00;99.90;;;;;;5033878;28;20084;-83
2023/06/02 01:06:36;;;;;;;1999.90;999.90;;;19.00;99.90;;;;;;5034097;28;20027;-83
2023/06/02 01:09:13;;;;;;;1999.90;999.90;;;19.00;99.90;;;;;;5007481;28;20482;-83
2023/06/02 01:11:38;;;;;;;1999.90;999.90;;;19.00;99.90;;;;;;5014622;28;20018;-83
2023/06/02 01:14:05;;;;;;;1999.90;999.90;;;19.00;99.90;;;;;;5013812;28;20026;-83
2023/06/02 01:16:32;;;;;;;1999.90;999.90;;;19.00;99.90;;;;;;5017141;28;20020;-83
2023/06/02 01:18:59;;;;;;;1999.90;999.90;;;19.00;99.90;;;;;;5033730;28;20029;-83
2023/06/02 01:21:30;;;;;;;1999.90;999.90;;;19.00;99.90;;;;;;5033993;28;20556;-83
2023/06/02 01:23:57;;;;;;;1999.90;999.90;;;19.00;99.90;;;;;;5033512;28;20071;-83
2023/06/02 01:26:23;;;;;;;1999.90;999.90;;;19.00;99.90;;;;;;5032731;28;20109;-83
2023/06/02 01:28:49;;;;;;;1999.90;999.90;;;19.10;99.90;;;;;;5033549;28;20025;-83
2023/06/02 01:31:25;;;;;;;1999.90;999.90;;;19.10;99.90;;;;;;5033414;28;20026;-83
2023/06/02 01:34:06;;;;;;;1999.90;999.90;;;19.10;99.90;;;;;;5033678;28;20033;-83
2023/06/02 01:36:35;;;;;;;1999.90;999.90;;;19.10;99.90;;;;;;5033284;28;20057;-84
2023/06/02 01:39:02;;;;;;;1999.90;999.90;;;19.10;99.90;;;;;;5032981;28;20034;-84
2023/06/02 01:41:28;;;;;;;1999.90;999.90;;;19.10;99.90;;;;;;5033600;28;20460;-83
2023/06/02 01:43:56;;;;;;;1999.90;999.90;;;19.10;99.90;;;;;;5033177;28;20116;-83
2023/06/02 01:46:24;;;;;;;1999.90;999.90;;;19.00;99.90;;;;;;5015486;28;20022;-83
2023/06/02 01:48:53;;;;;;;1999.90;999.90;;;19.00;99.90;;;;;;5033351;28;20164;-83
2023/06/02 01:51:19;;;;;;;1999.90;999.90;;;19.00;99.90;;;;;;5033092;28;20076;-83
2023/06/02 01:53:44;;;;;;;1999.90;999.90;;;18.90;99.90;;;;;;5033295;28;20040;-83
2023/06/02 01:56:10;;;;;;;1999.90;999.90;;;19.00;99.90;;;;;;5033396;28;20029;-83
2023/06/02 01:58:36;;;;;;;1999.90;999.90;;;19.00;99.90;;;;;;5033107;28;20493;-83
2023/06/02 02:01:02;;;;;;;1999.90;999.90;;;19.00;99.90;;;;;;5033074;28;20026;-83
2023/06/02 02:03:30;;;;;;;1999.90;999.90;;;18.90;99.90;;;;;;5032640;28;20056;-83
2023/06/02 02:05:56;;;;;;;1999.90;999.90;;;18.90;99.90;;;;;;5033136;28;20017;-83
2023/06/02 02:08:22;;;;;;;1999.90;999.90;;;18.90;99.90;;;;;;5029496;28;20018;-83
2023/06/02 02:10:48;;;;;;;1999.90;999.90;;;18.90;99.90;;;;;;5013216;28;20032;-81
2023/06/02 02:13:13;;;;;;;1999.90;999.90;;;18.90;99.90;;;;;;5013525;28;20057;-83
2023/06/02 02:15:39;;;;;;;1999.90;999.90;;;19.00;99.90;;;;;;5012198;28;20037;-83
2023/06/02 02:18:05;;;;;;;1999.90;999.90;;;19.00;99.90;;;;;;5029761;28;20028;-83
2023/06/02 02:20:31;;;;;;;1999.90;999.90;;;19.00;99.90;;;;;;5032872;28;20075;-83
2023/06/02 02:22:56;;;;;;;1999.90;999.90;;;19.00;99.90;;;;;;5032782;28;20025;-83
2023/06/02 02:25:22;;;;;;;1999.90;999.90;;;19.00;99.90;;;;;;5033061;28;20476;-83
2023/06/02 02:27:48;;;;;;;1999.90;999.90;;;18.90;99.90;;;;;;5032682;28;20508;-83
2023/06/02 02:30:14;;;;;;;1999.90;999.90;;;19.00;99.90;;;;;;5032757;28;20111;-83
2023/06/02 02:32:43;;;;;;;1999.90;999.90;;;19.00;99.90;;;;;;5032879;28;20024;-83
2023/06/02 02:35:09;;;;;;;1999.90;999.90;;;18.90;99.90;;;;;;5032632;28;20424;-83
2023/06/02 02:37:36;;;;;;;1999.90;999.90;;;18.90;99.90;;;;;;5033020;28;20022;-83
2023/06/02 02:40:02;;;;;;;1999.90;999.90;;;18.90;99.90;;;;;;5032620;28;20170;-83
2023/06/02 02:42:28;;;;;;;1999.90;999.90;;;18.90;99.90;;;;;;5033185;28;20010;-83
2023/06/02 02:44:54;;;;;;;1999.90;999.90;;;19.00;99.90;;;;;;5032516;28;20037;-83
2023/06/02 02:47:20;;;;;;;1999.90;999.90;;;19.00;99.90;;;;;;5032626;28;20029;-83
2023/06/02 02:49:46;;;;;;;1999.90;999.90;;;19.00;99.90;;;;;;5032731;28;20025;-83
2023/06/02 02:52:12;;;;;;;1999.90;999.90;;;18.90;99.90;;;;;;5032386;28;20392;-83
2023/06/02 02:54:38;;;;;;;1999.90;999.90;;;18.90;99.90;;;;;;5032672;28;20021;-83
2023/06/02 02:57:07;;;;;;;1999.90;999.90;;;18.90;99.90;;;;;;5032870;28;20049;-83
2023/06/02 02:59:33;;;;;;;1999.90;999.90;;;19.00;99.90;;;;;;5032624;28;20427;-83
2023/06/02 03:01:59;;;;;;;1999.90;999.90;;;19.00;99.90;;;;;;5030812;28;20025;-83
2023/06/02 03:04:25;;;;;;;1999.90;999.90;;;19.00;99.90;;;;;;5012791;28;20072;-83
2023/06/02 03:06:53;;;;;;;1999.90;999.90;;;19.00;99.90;;;;;;5012812;28;20392;-83
2023/06/02 03:09:19;;;;;;;1999.90;999.90;;;19.00;99.90;;;;;;5012681;28;20014;-83
2023/06/02 03:11:45;;;;;;;1999.90;999.90;;;18.90;99.90;;;;;;5012687;28;20022;-83
2023/06/02 03:14:11;;;;;;;1999.90;999.90;;;18.80;99.90;;;;;;5018386;28;20033;-83
2023/06/02 03:16:41;;;;;;;1999.90;999.90;;;18.80;99.90;;;;;;5031609;28;20388;-83
2023/06/02 03:19:12;;;;;;;1999.90;999.90;;;18.70;99.90;;;;;;5032060;28;20041;-83
2023/06/02 03:21:41;;;;;;;1999.90;999.90;;;18.70;99.90;;;;;;5034890;28;20022;-83
2023/06/02 03:24:18;;;;;;;1999.90;999.90;;;18.70;99.90;;;;;;5036142;28;20025;-83
2023/06/02 03:26:45;;;;;;;1999.90;999.90;;;18.60;99.90;;;;;;5036176;28;20383;-83
2023/06/02 03:29:12;;;;;;;1999.90;999.90;;;18.60;99.90;;;;;;5036186;28;20032;-82
2023/06/02 03:31:39;;;;;;;1999.90;999.90;;;18.60;99.90;;;;;;5017941;28;20057;-82
2023/06/02 03:34:05;;;;;;;1999.90;999.90;;;18.50;99.90;;;;;;5035841;28;20033;-82
2023/06/02 03:36:38;;;;;;;1999.90;999.90;;;18.40;99.90;;;;;;5035639;28;20107;-82
2023/06/02 03:39:05;;;;;;;1999.90;999.90;;;18.40;99.90;;;;;;5034881;28;20136;-83
2023/06/02 03:41:31;;;;;;;1999.90;999.90;;;18.40;99.90;;;;;;5015102;28;20035;-82
2023/06/02 03:43:57;;;;;;;1999.90;999.90;;;18.30;99.90;;;;;;5035834;28;20029;-83
2023/06/02 03:46:22;;;;;;;1999.90;999.90;;;18.30;99.90;;;;;;5035547;28;20028;-83
2023/06/02 03:48:48;;;;;;;1999.90;999.90;;;18.20;99.90;;;;;;5035839;28;20021;-83
2023/06/02 03:51:14;;;;;;;1999.90;999.90;;;18.20;99.90;;;;;;5017753;28;20420;-83
2023/06/02 03:53:39;;;;;;;1999.90;999.90;;;18.10;99.90;;;;;;5035615;28;20025;-83
2023/06/02 03:56:05;;;;;;;1999.90;999.90;;;18.10;99.90;;;;;;5035224;28;20037;-83
2023/06/02 03:58:31;;;;;;;1999.90;999.90;;;18.00;99.90;;;;;;5017549;28;20555;-83
2023/06/02 04:00:58;;;;;;;1999.90;999.90;;;18.00;99.90;;;;;;5035311;28;20404;-83
2023/06/02 04:03:24;;;;;;;1999.90;999.90;;;17.90;99.90;;;;;;5035195;28;20502;-82
2023/06/02 04:05:49;;;;;;;1999.90;999.90;;;17.80;99.90;;;;;;5017242;28;20112;-82
2023/06/02 04:08:16;;;;;;;1999.90;999.90;;;17.80;99.90;;;;;;5033296;28;20028;-82
2023/06/02 04:10:45;;;;;;;1999.90;999.90;;;17.80;99.90;;;;;;5015177;28;20033;-82
2023/06/02 04:13:11;;;;;;;1999.90;999.90;;;17.70;99.90;;;;;;5015652;28;20104;-82
2023/06/02 04:15:37;;;;;;;1999.90;999.90;;;17.60;99.90;;;;;;5015532;28;20153;-83
2023/06/02 04:18:03;;;;;;;1999.90;999.90;;;17.60;99.90;;;;;;5030190;28;20028;-83
2023/06/02 04:20:29;;;;;;;1999.90;999.90;;;17.60;99.90;;;;;;5034864;28;20033;-82
2023/06/02 04:22:54;;;;;;;1999.90;999.90;;;17.50;99.90;;;;;;5034882;28;20388;-82
2023/06/02 04:25:20;;;;;;;1999.90;999.90;;;17.50;99.90;;;;;;5017076;28;20059;-82
2023/06/02 04:27:46;;;;;;;1999.90;999.90;;;17.50;99.90;;;;;;5034668;28;20024;-82
2023/06/02 04:30:11;;;;;;;1999.90;999.90;;;17.50;99.90;;;;;;5034731;28;20040;-83
2023/06/02 04:32:37;;;;;;;1999.90;999.90;;;17.50;99.90;;;;;;5034159;28;20036;-83
2023/06/02 04:35:03;;;;;;;1999.90;999.90;;;17.40;99.90;;;;;;5034412;28;20069;-83
2023/06/02 04:37:29;;;;;;;1999.90;999.90;;;17.40;99.90;;;;;;5034532;28;20105;-83
2023/06/02 04:39:55;;;;;;;1999.90;999.90;;;17.40;99.90;;;;;;5016666;28;20504;-83
2023/06/02 04:42:21;;;;;;;1999.90;999.90;;;17.40;99.90;;;;;;5034477;28;20030;-83
2023/06/02 04:44:48;;;;;;;1999.90;999.90;;;17.40;99.90;;;;;;5034213;28;20045;-83
2023/06/02 04:47:14;;;;;;;1999.90;999.90;;;17.30;99.90;;;;;;5034320;28;20499;-83
2023/06/02 04:49:40;;;;;;;1999.90;999.90;;;17.30;99.90;;;;;;5034344;28;20101;-83
2023/06/02 04:52:09;;;;;;;1999.90;999.90;;;17.30;99.90;;;;;;5034183;28;20562;-82
2023/06/02 04:54:35;;;;;;;1999.90;999.90;;;17.40;99.90;;;;;;5034405;28;20026;-82
2023/06/02 04:57:05;;;;;;;1999.90;999.90;;;17.30;99.90;;;;;;5034086;28;20026;-82
2023/06/02 04:59:33;;;;;;;1999.90;999.90;;;17.40;99.90;;;;;;5034115;28;20504;-82
2023/06/02 05:01:59;;;;;;;1999.90;999.90;;;17.40;99.90;;;;;;5033931;28;20026;-82
2023/06/02 05:04:25;;;;;;;1999.90;999.90;;;17.40;99.90;;;;;;5034042;28;20030;-83
2023/06/02 05:06:51;;;;;;;1999.90;999.90;;;17.40;99.90;;;;;;5034135;28;20024;-83
2023/06/02 05:09:17;;;;;;;1999.90;999.90;;;17.40;99.90;;;;;;5033633;28;20024;-82
2023/06/02 05:11:43;;;;;;;1999.90;999.90;;;17.40;99.90;;;;;;5034124;28;20014;-83
2023/06/02 05:14:08;;;;;;;1999.90;999.90;;;17.50;99.90;;;;;;5033931;28;20120;-83
2023/06/02 05:16:35;;;;;;;1999.90;999.90;;;17.50;99.90;;;;;;5033781;28;20022;-83
2023/06/02 05:19:02;;;;;;;1999.90;999.90;;;17.60;99.90;;;;;;5033094;28;20028;-83
2023/06/02 05:21:29;;;;;;;1999.90;999.90;;;17.60;99.90;;;;;;5033479;28;20059;-83
2023/06/02 05:23:54;;;;;;;1999.90;999.90;;;17.70;99.90;;;;;;5036177;28;20116;-82
2023/06/02 05:26:20;;;;;;;1999.90;999.90;;;17.70;99.90;;;;;;5027065;28;20101;-83
2023/06/02 05:28:49;;;;;;;1999.90;999.90;;;17.80;99.90;;;;;;5032523;28;20117;-83
2023/06/02 05:31:15;;;;;;;1999.90;999.90;;;17.90;99.90;;;;;;5033859;28;20031;-83
2023/06/02 05:33:40;;;;;;;1999.90;999.90;;;18.00;99.90;;;;;;5029804;28;20029;-82
2023/06/02 05:36:06;;;;;;;1999.90;999.90;;;18.00;99.90;;;;;;5026069;28;20064;-82
2023/06/02 05:38:32;;;;;;;1999.90;999.90;;;18.10;99.90;;;;;;5026371;28;20041;-81
2023/06/02 05:40:57;;;;;;;1999.90;999.90;;;18.20;99.90;;;;;;5032724;28;20515;-83
2023/06/02 05:43:23;;;;;;;1999.90;999.90;;;18.20;99.90;;;;;;5033716;28;20040;-83
2023/06/02 05:45:48;;;;;;;1999.90;999.90;;;18.30;99.90;;;;;;5011796;28;20022;-83
2023/06/02 05:48:14;;;;;;;1999.90;999.90;;;18.40;99.90;;;;;;5031109;28;20494;-83
2023/06/02 05:50:41;;;;;;;1999.90;999.90;;;18.40;99.90;;;;;;5033565;28;20021;-83
2023/06/02 05:53:07;;;;;;;1999.90;999.90;;;18.50;99.90;;;;;;5033436;28;20119;-83
2023/06/02 05:55:33;;;;;;;1999.90;999.90;;;18.50;99.90;;;;;;5034232;28;20025;-83
2023/06/02 05:57:59;;;;;;;1999.90;999.90;;;18.60;99.90;;;;;;5033481;28;20033;-83
2023/06/02 06:00:24;;;;;;;1999.90;999.90;;;18.70;99.90;;;;;;5034104;28;20033;-84
2023/06/02 06:02:50;;;;;;;1999.90;999.90;;;18.80;99.90;;;;;;5030995;28;20112;-83
2023/06/02 06:05:16;;;;;;;1999.90;999.90;;;18.80;99.90;;;;;;5013473;28;20395;-83
2023/06/02 06:07:42;;;;;;;1999.90;999.90;;;18.90;99.90;;;;;;5030729;28;20121;-83
2023/06/02 06:10:08;;;;;;;1999.90;999.90;;;19.00;99.90;;;;;;5012985;28;20095;-83
2023/06/02 06:12:33;;;;;;;1999.90;999.90;;;19.10;99.90;;;;;;5030716;28;20113;-83
2023/06/02 06:14:59;;;;;;;1999.90;999.90;;;19.20;99.90;;;;;;5030247;28;20112;-83
2023/06/02 06:17:24;;;;;;;1999.90;999.90;;;19.20;99.90;;;;;;5028263;28;20032;-83
2023/06/02 06:19:50;;;;;;;1999.90;999.90;;;19.30;99.90;;;;;;5030257;28;20071;-83
2023/06/02 06:22:16;;;;;;;1999.90;999.90;;;19.40;99.90;;;;;;5031358;28;20021;-83
2023/06/02 06:24:42;;;;;;;1999.90;999.90;;;19.50;99.90;;;;;;5031727;28;20032;-84
2023/06/02 06:27:07;;;;;;;1999.90;999.90;;;19.50;99.90;;;;;;5021070;28;20112;-83
2023/06/02 06:29:33;;;;;;;1999.90;999.90;;;19.60;99.90;;;;;;5017524;28;20021;-83
2023/06/02 06:31:59;;;;;;;1999.90;999.90;;;19.60;99.90;;;;;;5030786;28;20035;-83
2023/06/02 06:34:25;;;;;;;1999.90;999.90;;;19.60;99.90;;;;;;5030892;28;20388;-83
2023/06/02 06:36:51;;;;;;;1999.90;999.90;;;19.60;99.90;;;;;;5028017;28;20060;-83
2023/06/02 06:39:17;;;;;;;1999.90;999.90;;;19.70;99.90;;;;;;5029955;28;20068;-83
2023/06/02 06:41:42;;;;;;;1999.90;999.90;;;19.70;99.90;;;;;;5013163;28;20434;-83
2023/06/02 06:44:08;;;;;;;1999.90;999.90;;;19.70;99.90;;;;;;5030204;28;20037;-83
2023/06/02 06:46:34;;;;;;;1999.90;999.90;;;19.90;99.90;;;;;;5030025;28;20033;-83
2023/06/02 06:49:00;;;;;;;1999.90;999.90;;;20.00;99.90;;;;;;5030617;28;20037;-83
2023/06/02 06:51:26;;;;;;;1999.90;999.90;;;20.20;99.90;;;;;;5030429;28;20076;-84
2023/06/02 06:53:52;;;;;;;1999.90;999.90;;;20.30;99.90;;;;;;5012411;28;20512;-86
2023/06/02 06:56:18;;;;;;;1999.90;999.90;;;20.50;99.90;;;;;;5032580;28;20045;-86
2023/06/02 06:58:43;;;;;;;1999.90;999.90;;;20.50;99.90;;;;;;5029134;28;20025;-88
2023/06/02 07:01:10;;;;;;;1999.90;999.90;;;20.50;99.90;;;;;;5028032;28;20075;-82
2023/06/02 07:03:36;;;;;;;1999.90;999.90;;;20.50;99.90;;;;;;5030610;28;20022;-80
2023/06/02 07:06:01;;;;;;;1999.90;999.90;;;20.50;99.90;;;;;;5032495;28;20033;-80
2023/06/02 07:08:28;;;;;;;1999.90;999.90;;;20.60;99.90;;;;;;5028821;28;20409;-80
2023/06/02 07:10:54;;;;;;;1999.90;999.90;;;20.80;99.90;;;;;;5032340;28;20025;-80
2023/06/02 07:13:19;;;;;;;1999.90;999.90;;;21.00;99.90;;;;;;5032573;28;20040;-81
2023/06/02 07:15:45;;;;;;;1999.90;999.90;;;21.00;99.90;;;;;;5029191;28;20044;-81
2023/06/02 07:18:11;;;;;;;1999.90;999.90;;;21.10;99.90;;;;;;5029961;28;20031;-80
2023/06/02 07:20:37;;;;;;;1999.90;999.90;;;21.20;99.90;;;;;;5031507;28;20026;-80
2023/06/02 07:23:02;;;;;;;1999.90;999.90;;;21.20;99.90;;;;;;5030079;28;20025;-81
2023/06/02 07:25:28;;;;;;;1999.90;999.90;;;21.40;99.90;;;;;;5027534;28;20061;-80
2023/06/02 07:27:54;;;;;;;1999.90;999.90;;;21.50;99.90;;;;;;5013390;28;20053;-83
2023/06/02 07:30:20;;;;;;;1999.90;999.90;;;21.90;99.90;;;;;;5031251;28;20108;-76
2023/06/02 07:32:46;;;;;;;1999.90;999.90;;;22.50;99.90;;;;;;5026824;28;20115;-79
2023/06/02 07:35:12;;;;;;;1999.90;999.90;;;24.40;99.90;;;;;;5031875;28;20437;-77
2023/06/02 07:37:37;;;;;;;1999.90;999.90;;;25.80;99.90;;;;;;5029306;28;20033;-78
2023/06/02 07:40:04;;;;;;;1999.90;999.90;;;26.70;99.90;;;;;;5031352;28;20084;-78
2023/06/02 07:42:29;;;;;;;1999.90;999.90;;;27.10;99.90;;;;;;5031907;28;20041;-77
2023/06/02 07:44:55;;;;;;;1999.90;999.90;;;27.40;99.90;;;;;;5031144;28;20034;-77
2023/06/02 07:47:22;;;;;;;1999.90;999.90;;;27.90;99.90;;;;;;5030771;28;20063;-77
2023/06/02 07:49:47;;;;;;;1999.90;999.90;;;28.20;99.70;;;;;;5027278;28;20033;-77
2023/06/02 07:52:13;;;;;;;1999.90;999.90;;;28.10;99.60;;;;;;5028480;28;20037;-77
2023/06/02 07:54:39;;;;;;;1999.90;999.90;;;28.70;99.20;;;;;;5013821;28;20480;-77
2023/06/02 07:57:05;;;;;;;1999.90;999.90;;;29.60;98.90;;;;;;5026067;28;20033;-76
2023/06/02 07:59:31;;;;;;;1999.90;999.90;;;29.60;97.00;;;;;;5031156;28;20044;-77
2023/06/02 08:01:57;;;;;;;1999.90;999.90;;;30.10;97.10;;;;;;5029311;28;20383;-77
2023/06/02 08:04:28;;;;;;;1999.90;999.90;;;30.40;95.90;;;;;;5031011;28;20069;-77
2023/06/02 08:06:57;;;;;;;1999.90;999.90;;;30.90;95.80;;;;;;5028390;28;20531;-77
2023/06/02 08:09:24;;;;;;;1999.90;999.90;;;31.20;95.00;;;;;;5031425;28;20751;-78
2023/06/02 08:11:51;;;;;;;1999.90;999.90;;;31.40;94.40;;;;;;5031633;28;20037;-78
2023/06/02 08:14:17;;;;;;;1999.90;999.90;;;31.70;95.10;;;;;;5031787;28;20076;-77
2023/06/02 08:16:43;;;;;;;1999.90;999.90;;;31.80;93.80;;;;;;5029212;28;20396;-78
2023/06/02 08:19:10;;;;;;;1999.90;999.90;;;31.90;94.10;;;;;;5031417;28;20039;-77
2023/06/02 08:21:39;;;;;;;1999.90;999.90;;;32.40;94.30;;;;;;5030220;28;20033;-77
2023/06/02 08:24:05;;;;;;;1999.90;999.90;;;32.50;93.30;;;;;;5031065;28;20025;-76
2023/06/02 08:26:30;;;;;;;1999.90;999.90;;;32.70;93.90;;;;;;5010384;28;20068;-77
2023/06/02 08:28:57;;;;;;;1999.90;999.90;;;32.80;93.10;;;;;;5030220;28;20053;-77
2023/06/02 08:31:23;;;;;;;1999.90;999.90;;;32.50;93.30;;;;;;5029924;28;20032;-77
2023/06/02 08:33:53;;;;;;;1999.90;999.90;;;32.70;92.60;;;;;;5030433;28;20025;-77
2023/06/02 08:36:19;;;;;;;1999.90;999.90;;;33.50;92.00;;;;;;5029901;28;20132;-76
2023/06/02 08:38:51;;;;;;;1999.90;999.90;;;33.10;92.40;;;;;;5011178;28;20029;-77
2023/06/02 08:41:17;;;;;;;1999.90;999.90;;;32.90;92.40;;;;;;5027696;28;20052;-76
2023/06/02 08:43:43;;;;;;;1999.90;999.90;;;33.00;92.10;;;;;;5030730;28;20060;-77
2023/06/02 08:46:15;;;;;;;1999.90;999.90;;;32.90;92.50;;;;;;5030677;28;20463;-77
2023/06/02 08:48:47;;;;;;;1999.90;999.90;;;33.00;92.20;;;;;;5030821;28;20033;-76
2023/06/02 08:51:22;;;;;;;1999.90;999.90;;;33.40;92.40;;;;;;5028752;28;20077;-76
2023/06/02 08:53:47;;;;;;;1999.90;999.90;;;33.70;91.60;;;;;;5026099;28;20116;-77
2023/06/02 08:56:14;;;;;;;1999.90;999.90;;;34.20;90.70;;;;;;5030287;28;20112;-76
2023/06/02 08:58:43;;;;;;;1999.90;999.90;;;34.20;92.00;;;;;;5030588;28;20030;-76
2023/06/02 09:01:09;;;;;;;1999.90;999.90;;;34.70;90.80;;;;;;5025820;28;20044;-78
2023/06/02 09:03:34;;;;;;;1999.90;999.90;;;34.80;91.00;;;;;;5029632;28;20025;-77
2023/06/02 09:06:15;;;;;;;1999.90;999.90;;;34.40;90.50;;;;;;5030219;28;20033;-77
2023/06/02 09:09:01;;;;;;;1999.90;999.90;;;33.90;90.70;;;;;;5028855;28;20032;-77
2023/06/02 09:11:29;;;;;;;1999.90;999.90;;;33.80;91.50;;;;;;5030938;28;20327;-76
2023/06/02 09:13:55;;;;;;;1999.90;999.90;;;34.50;90.90;;;;;;5030269;28;20021;-77
2023/06/02 09:16:21;;;;;;;1999.90;999.90;;;34.70;90.90;;;;;;5030663;28;20599;-77
2023/06/02 09:18:58;;;;;;;1999.90;999.90;;;34.50;90.40;;;;;;5030412;28;20033;-77
2023/06/02 09:21:27;;;;;;;1999.90;999.90;;;34.60;90.50;;;;;;5030020;28;20057;-77
2023/06/02 09:23:53;;;;;;;1999.90;999.90;;;34.50;90.70;;;;;;5029870;28;20478;-79
2023/06/02 09:26:21;;;;;;;1999.90;999.90;;;34.90;90.20;;;;;;5031613;28;20120;-77
2023/06/02 09:29:06;;;;;;;1999.90;999.90;;;35.10;90.80;;;;;;5029548;28;20041;-77
2023/06/02 09:31:52;;;;;;;1999.90;999.90;;;35.30;89.60;;;;;;5027573;28;20507;-77
2023/06/02 09:34:19;;;;;;;1999.90;999.90;;;35.10;89.50;;;;;;5023501;28;20026;-76
2023/06/02 09:36:49;;;;;;;1999.90;999.90;;;34.90;90.50;;;;;;5028813;28;20056;-77
2023/06/02 09:39:34;;;;;;;1999.90;999.90;;;35.30;90.10;;;;;;5023307;28;20104;-77
2023/06/02 09:42:00;;;;;;;1999.90;999.90;;;35.40;90.40;;;;;;5030066;28;20060;-74
2023/06/02 09:44:26;;;;;;;1999.90;999.90;;;35.30;89.50;;;;;;5029950;28;20092;-76
2023/06/02 09:46:52;;;;;;;1999.90;999.90;;;34.70;90.00;;;;;;5028561;28;20485;-76
2023/06/02 09:49:18;;;;;;;1999.90;999.90;;;35.00;89.90;;;;;;5028967;28;20060;-76
2023/06/02 09:51:44;;;;;;;1999.90;999.90;;;35.00;90.70;;;;;;5027989;28;20076;-76
2023/06/02 09:54:10;;;;;;;1999.90;999.90;;;35.50;90.30;;;;;;5027372;28;20026;-77
2023/06/02 09:56:37;;;;;;;1999.90;999.90;;;35.50;88.80;;;;;;5022742;28;20068;-78
2023/06/02 09:59:06;;;;;;;1999.90;999.90;;;35.50;90.00;;;;;;5029115;28;20060;-77
2023/06/02 10:01:34;;;;;;;1999.90;999.90;;;35.20;90.10;;;;;;5025943;28;20033;-76
2023/06/02 10:04:01;;;;;;;1999.90;999.90;;;34.70;90.30;;;;;;5027299;28;20040;-76
2023/06/02 10:06:48;;;;;;;1999.90;999.90;;;34.70;90.30;;;;;;5013993;28;20041;-75
2023/06/02 10:09:34;;;;;;;1999.90;999.90;;;34.60;90.40;;;;;;5028524;28;20034;-74
2023/06/02 10:12:06;;;;;;;1999.90;999.90;;;35.20;90.30;;;;;;5031223;28;20025;-75
2023/06/02 10:14:53;;;;;;;1999.90;999.90;;;34.70;90.50;;;;;;5031080;28;20036;-75
2023/06/02 10:18:08;;;;;;;1999.90;999.90;;;34.80;90.80;;;;;;5030438;28;20042;-74
2023/06/02 10:20:43;;;;;;;1999.90;999.90;;;35.20;90.40;;;;;;5012467;28;20041;-75
2023/06/02 10:23:37;;;;;;;1999.90;999.90;;;35.10;90.30;;;;;;5030340;28;20112;-76
2023/06/02 10:26:03;;;;;;;1999.90;999.90;;;34.80;90.30;;;;;;5030752;28;20093;-75
2023/06/02 10:28:29;;;;;;;1999.90;999.90;;;34.70;90.80;;;;;;5031057;28;20029;-76
2023/06/02 10:31:09;;;;;;;1999.90;999.90;;;34.20;91.10;;;;;;5019534;28;20036;-77
2023/06/02 10:33:42;;;;;;;1999.90;999.90;;;33.90;91.80;;;;;;5021656;28;20033;-76
2023/06/02 10:36:08;;;;;;;1999.90;999.90;;;34.00;92.00;;;;;;5035766;28;20051;-76
2023/06/02 10:38:34;;;;;;;1999.90;999.90;;;34.10;91.60;;;;;;5037832;28;20029;-76
2023/06/02 10:41:01;;;;;;;1999.90;999.90;;;34.40;91.40;;;;;;5038177;28;20514;-76
2023/06/02 10:43:27;;;;;;;1999.90;999.90;;;34.20;91.30;;;;;;5038333;28;20041;-76
2023/06/02 10:45:55;;;;;;;1999.90;999.90;;;34.30;91.90;;;;;;5036112;28;20412;-76
2023/06/02 10:48:37;;;;;;;1999.90;999.90;;;34.10;91.20;;;;;;5037421;28;20717;-75
2023/06/02 10:51:04;;;;;;;1999.90;999.90;;;34.00;91.10;;;;;;5034400;28;20021;-79
2023/06/02 10:53:30;;;;;;;1999.90;999.90;;;33.80;91.80;;;;;;5032407;28;20511;-81
2023/06/02 10:55:56;;;;;;;1999.90;999.90;;;33.80;92.10;;;;;;5031809;28;20018;-75
2023/06/02 10:58:48;;;;;;;1999.90;999.90;;;34.50;91.50;;;;;;5037431;28;20037;-76
2023/06/02 11:01:51;;;;;;;1999.90;999.90;;;34.10;91.10;;;;;;5019689;28;20030;-75
2023/06/02 11:04:34;;;;;;;1999.90;999.90;;;34.20;92.00;;;;;;5042610;28;20034;-76
2023/06/02 11:07:23;;;;;;;1999.90;999.90;;;34.00;92.00;;;;;;5033471;28;20045;-75
2023/06/02 11:09:58;;;;;;;1999.90;999.90;;;34.40;91.50;;;;;;5032391;28;20448;-76
2023/06/02 11:12:51;;;;;;;1999.90;999.90;;;34.80;91.00;;;;;;5034974;28;20501;-77
2023/06/02 11:15:18;;;;;;;1999.90;999.90;;;34.70;90.20;;;;;;5033708;28;20451;-77
2023/06/02 11:17:47;;;;;;;1999.90;999.90;;;34.00;91.00;;;;;;5038426;28;20060;-76
2023/06/02 11:20:14;;;;;;;1999.90;999.90;;;34.30;90.50;;;;;;5035648;28;20563;-77
2023/06/02 11:22:40;;;;;;;1999.90;999.90;;;34.20;91.00;;;;;;5036622;28;20575;-76
2023/06/02 11:25:08;;;;;;;1999.90;999.90;;;34.30;91.70;;;;;;5037649;28;20026;-75
2023/06/02 11:27:45;;;;;;;1999.90;999.90;;;33.80;90.80;;;;;;5035297;28;20024;-76
2023/06/02 11:30:14;;;;;;;1999.90;999.90;;;34.50;90.80;;;;;;5031310;28;20079;-76
2023/06/02 11:32:40;;;;;;;1999.90;999.90;;;33.90;90.50;;;;;;5036361;28;20365;-76
2023/06/02 11:35:07;;;;;;;1999.90;999.90;;;34.30;90.80;;;;;;5036668;28;20045;-76
2023/06/02 11:37:36;;;;;;;1999.90;999.90;;;34.10;91.00;;;;;;5036377;28;20116;-75
2023/06/02 11:40:03;;;;;;;1999.90;999.90;;;34.40;90.70;;;;;;5036129;28;20026;-76
2023/06/02 11:42:44;;;;;;;1999.90;999.90;;;34.20;90.60;;;;;;5012440;28;20025;-76
2023/06/02 11:45:24;;;;;;;1999.90;999.90;;;33.60;91.40;;;;;;5033433;28;20527;-76
2023/06/02 11:48:05;;;;;;;1999.90;999.90;;;33.60;91.70;;;;;;5011423;28;20029;-76
2023/06/02 11:50:31;;;;;;;1999.90;999.90;;;33.80;91.40;;;;;;5030704;28;20022;-75
2023/06/02 11:52:57;;;;;;;1999.90;999.90;;;34.00;90.60;;;;;;5021872;28;20056;-75
2023/06/02 11:55:28;;;;;;;1999.90;999.90;;;34.30;90.70;;;;;;5031290;28;20125;-76
2023/06/02 11:58:14;;;;;;;1999.90;999.90;;;34.00;90.80;;;;;;5007486;28;20378;-76
2023/06/02 12:00:40;;;;;;;1999.90;999.90;;;34.10;91.40;;;;;;5032248;28;20033;-76
2023/06/02 12:03:12;;;;;;;1999.90;999.90;;;34.20;91.50;;;;;;5036274;28;20079;-76